createdAt,value
2022-10-26T00:01:16.022Z,3.50
2022-10-26T00:03:45.218Z,7.25
2022-10-26T00:08:46.639Z,8.90
2022-10-26T00:11:14.475Z,8.90
2022-10-26T00:13:42.711Z,5.03
2022-10-26T00:16:12.626Z,8.13
2022-10-26T00:18:40.174Z,7.32
2022-10-26T00:21:09.839Z,7.18
2022-10-26T00:23:37.474Z,5.65
2022-10-26T00:26:05.063Z,5.82
2022-10-26T00:28:32.721Z,7.03
2022-10-26T00:31:07.340Z,7.25
2022-10-26T00:33:35.125Z,8.55
2022-10-26T00:36:02.445Z,5.13
2022-10-26T00:38:29.779Z,2.60
2022-10-26T00:43:24.916Z,3.17
2022-10-26T00:45:54.994Z,4.68
2022-10-26T00:48:30.245Z,6.13
2022-10-26T00:51:02.298Z,5.32
2022-10-26T00:53:31.964Z,7.50
2022-10-26T00:56:00.020Z,5.20
2022-10-26T00:58:27.680Z,5.60
2022-10-26T01:00:55.055Z,4.03
2022-10-26T01:03:24.651Z,5.28
2022-10-26T01:05:56.310Z,2.42
2022-10-26T01:08:25.693Z,6.68
2022-10-26T01:10:53.254Z,5.95
2022-10-26T01:13:20.688Z,4.30
2022-10-26T01:16:16.534Z,4.60
2022-10-26T01:19:24.689Z,3.92
2022-10-26T01:22:06.673Z,7.55
2022-10-26T01:25:09.689Z,4.32
2022-10-26T01:27:42.621Z,6.30
2022-10-26T01:30:41.319Z,4.90
2022-10-26T01:33:13.588Z,3.33
2022-10-26T01:36:15.878Z,9.48
2022-10-26T01:39:06.499Z,9.55
2022-10-26T01:41:50.305Z,2.88
2022-10-26T01:44:26.152Z,10.73
2022-10-26T01:46:55.213Z,4.55
2022-10-26T01:51:52.529Z,8.13
2022-10-26T01:54:19.883Z,5.88
2022-10-26T01:56:52.675Z,5.60
2022-10-26T01:59:37.848Z,6.38
2022-10-26T02:02:33.065Z,8.35
2022-10-26T02:05:21.909Z,6.22
2022-10-26T02:08:19.814Z,7.88
2022-10-26T02:11:18.923Z,6.60
2022-10-26T02:14:00.403Z,9.25
2022-10-26T02:16:39.212Z,14.23
2022-10-26T02:19:29.308Z,14.07
2022-10-26T02:22:20.966Z,12.35
2022-10-26T02:24:52.150Z,7.47
2022-10-26T02:27:34.192Z,8.57
2022-10-26T02:30:04.307Z,10.77
2022-10-26T02:32:37.108Z,5.47
2022-10-26T02:35:05.706Z,4.22
2022-10-26T02:37:35.079Z,10.88
2022-10-26T02:40:09.128Z,9.88
2022-10-26T02:42:39.203Z,11.75
2022-10-26T02:45:16.185Z,7.35
2022-10-26T02:47:43.728Z,6.07
2022-10-26T02:50:11.022Z,8.25
2022-10-26T02:53:09.830Z,8.15
2022-10-26T02:55:43.548Z,11.73
2022-10-26T02:58:23.285Z,7.40
2022-10-26T03:00:51.524Z,5.97
2022-10-26T03:03:19.391Z,10.47
2022-10-26T03:05:46.916Z,13.43
2022-10-26T03:08:14.134Z,8.73
2022-10-26T03:10:44.560Z,12.27
2022-10-26T03:13:13.153Z,8.10
2022-10-26T03:15:40.422Z,11.77
2022-10-26T03:18:07.639Z,8.73
2022-10-26T03:20:35.033Z,9.90
2022-10-26T03:23:02.121Z,6.65
2022-10-26T03:25:29.437Z,7.65
2022-10-26T03:28:01.813Z,7.88
2022-10-26T03:30:30.661Z,18.02
2022-10-26T03:32:58.034Z,5.00
2022-10-26T03:35:25.163Z,9.57
2022-10-26T03:37:52.540Z,8.10
2022-10-26T03:40:19.956Z,9.45
2022-10-26T03:42:47.138Z,16.73
2022-10-26T03:45:14.580Z,8.18
2022-10-26T03:47:49.232Z,10.30
2022-10-26T03:50:19.981Z,9.68
2022-10-26T03:52:49.130Z,12.10
2022-10-26T03:55:17.121Z,12.10
2022-10-26T03:57:45.529Z,13.18
2022-10-26T04:00:15.828Z,13.63
2022-10-26T04:02:48.117Z,19.77
2022-10-26T04:05:16.069Z,19.63
2022-10-26T04:07:43.425Z,19.55
2022-10-26T04:10:10.915Z,26.73
2022-10-26T04:12:38.643Z,17.60
2022-10-26T04:15:07.430Z,25.42
2022-10-26T04:17:34.880Z,20.83
2022-10-26T04:20:02.652Z,14.02
2022-10-26T04:22:29.865Z,16.65
2022-10-26T04:24:57.056Z,21.58
2022-10-26T04:27:24.454Z,40.78
2022-10-26T04:29:51.765Z,24.98
2022-10-26T04:32:18.836Z,11.05
2022-10-26T04:34:45.987Z,16.75
2022-10-26T04:37:13.484Z,24.45
2022-10-26T04:39:40.631Z,13.00
2022-10-26T04:42:07.836Z,17.65
2022-10-26T04:44:34.961Z,17.05
2022-10-26T04:47:02.181Z,17.13
2022-10-26T04:49:29.331Z,16.20
2022-10-26T04:51:56.522Z,12.25
2022-10-26T04:54:23.685Z,35.63
2022-10-26T04:56:51.584Z,28.30
2022-10-26T04:59:18.694Z,31.65
2022-10-26T05:01:45.951Z,22.42
2022-10-26T05:04:13.321Z,36.83
2022-10-26T05:06:40.468Z,28.20
2022-10-26T05:09:07.729Z,40.75
2022-10-26T05:11:34.949Z,42.78
2022-10-26T05:14:02.145Z,56.63
2022-10-26T05:16:29.263Z,53.75
2022-10-26T05:18:56.334Z,31.17
2022-10-26T05:21:23.580Z,24.98
2022-10-26T05:23:53.427Z,38.72
2022-10-26T05:26:23.129Z,46.08
2022-10-26T05:28:52.396Z,24.33
2022-10-26T05:31:20.252Z,31.95
2022-10-26T05:33:51.189Z,39.13
2022-10-26T05:36:19.267Z,47.15
2022-10-26T05:38:46.969Z,33.25
2022-10-26T05:41:14.176Z,37.92
2022-10-26T05:43:41.300Z,38.80
2022-10-26T05:46:08.496Z,44.95
2022-10-26T05:48:35.599Z,32.28
2022-10-26T05:51:02.846Z,35.90
2022-10-26T05:53:30.092Z,46.92
2022-10-26T05:55:58.723Z,28.25
2022-10-26T05:58:26.371Z,37.17
2022-10-26T06:01:07.295Z,33.50
2022-10-26T06:03:57.284Z,30.42
2022-10-26T06:06:26.168Z,35.00
2022-10-26T06:11:20.977Z,27.90
2022-10-26T06:13:48.552Z,43.15
2022-10-26T06:16:44.924Z,50.53
2022-10-26T06:19:46.169Z,51.20
2022-10-26T06:22:25.677Z,53.55
2022-10-26T06:25:31.467Z,48.10
2022-10-26T06:28:34.875Z,50.40
2022-10-26T06:31:02.322Z,67.20
2022-10-26T06:33:30.527Z,47.80
2022-10-26T06:36:19.240Z,40.75
2022-10-26T06:38:48.691Z,23.90
2022-10-26T06:41:18.735Z,27.58
2022-10-26T06:43:46.692Z,30.38
2022-10-26T06:46:42.704Z,33.47
2022-10-26T06:49:39.894Z,29.42
2022-10-26T06:52:29.392Z,38.10
2022-10-26T06:54:57.059Z,26.23
2022-10-26T06:57:33.699Z,23.63
2022-10-26T07:00:02.639Z,28.17
2022-10-26T07:02:29.884Z,33.22
2022-10-26T07:04:57.071Z,21.25
2022-10-26T07:07:30.305Z,17.30
2022-10-26T07:09:57.833Z,19.50
2022-10-26T07:12:25.475Z,20.15
2022-10-26T07:14:54.231Z,27.08
2022-10-26T07:17:21.424Z,15.68
2022-10-26T07:19:48.667Z,18.15
2022-10-26T07:22:16.425Z,9.90
2022-10-26T07:24:43.576Z,10.85
2022-10-26T07:27:10.722Z,10.88
2022-10-26T07:29:39.105Z,8.55
2022-10-26T07:32:06.812Z,15.13
2022-10-26T07:34:34.349Z,33.72
2022-10-26T07:37:01.591Z,11.48
2022-10-26T07:39:32.057Z,11.13
2022-10-26T07:41:59.293Z,7.68
2022-10-26T07:44:26.494Z,13.13
2022-10-26T07:46:53.698Z,8.90
2022-10-26T07:49:22.845Z,7.68
2022-10-26T07:51:50.900Z,10.95
2022-10-26T07:54:18.016Z,9.52
2022-10-26T07:56:45.154Z,5.25
2022-10-26T07:59:12.700Z,4.72
2022-10-26T08:01:39.978Z,11.63
2022-10-26T08:04:07.113Z,16.08
2022-10-26T08:06:34.370Z,22.52
2022-10-26T08:09:01.489Z,14.38
2022-10-26T08:11:28.964Z,5.50
2022-10-26T08:13:56.337Z,3.72
2022-10-26T08:16:23.784Z,3.67
2022-10-26T08:18:51.371Z,3.15
2022-10-26T08:21:22.092Z,8.07
2022-10-26T08:26:24.453Z,1.33
2022-10-26T08:28:51.560Z,8.93
2022-10-26T08:31:19.969Z,7.30
2022-10-26T08:33:47.301Z,6.82
2022-10-26T08:36:19.413Z,7.32
2022-10-26T08:38:48.186Z,7.07
2022-10-26T08:41:15.805Z,4.43
2022-10-26T08:43:56.231Z,2.17
2022-10-26T08:46:34.437Z,4.38
2022-10-26T08:49:43.670Z,15.80
2022-10-26T08:52:17.104Z,10.98
2022-10-26T08:55:06.609Z,4.93
2022-10-26T08:57:43.200Z,4.82
2022-10-26T09:00:22.564Z,3.00
2022-10-26T09:02:53.577Z,19.48
2022-10-26T09:05:48.543Z,1.98
2022-10-26T09:08:31.767Z,13.10
2022-10-26T09:11:23.394Z,5.90
2022-10-26T09:14:07.126Z,5.18
2022-10-26T09:17:23.149Z,5.43
2022-10-26T09:20:02.245Z,3.80
2022-10-26T09:25:21.006Z,2.83
2022-10-26T09:28:01.471Z,4.38
2022-10-26T09:30:29.808Z,5.47
2022-10-26T09:33:15.676Z,5.57
2022-10-26T09:35:45.609Z,9.68
2022-10-26T09:38:57.572Z,3.15
2022-10-26T09:41:40.526Z,4.00
2022-10-26T09:44:25.548Z,8.60
2022-10-26T09:47:18.222Z,1.88
2022-10-26T09:49:55.793Z,4.53
2022-10-26T09:52:22.974Z,2.95
2022-10-26T09:54:50.083Z,3.85
2022-10-26T09:57:19.764Z,7.47
2022-10-26T09:59:49.337Z,4.60
2022-10-26T10:02:44.403Z,2.92
2022-10-26T10:05:39.119Z,4.43
2022-10-26T10:08:17.966Z,3.55
2022-10-26T10:11:07.149Z,2.42
2022-10-26T10:13:38.545Z,1.88
2022-10-26T10:16:22.442Z,9.55
2022-10-26T10:18:58.870Z,2.83
2022-10-26T10:21:38.644Z,2.75
2022-10-26T10:24:29.728Z,1.48
2022-10-26T10:27:16.820Z,3.15
2022-10-26T10:29:59.820Z,3.60
2022-10-26T10:32:35.582Z,7.60
2022-10-26T10:35:24.686Z,7.28
2022-10-26T10:37:52.615Z,5.05
2022-10-26T10:40:25.928Z,3.45
2022-10-26T10:43:12.757Z,16.08
2022-10-26T10:45:40.915Z,9.30
2022-10-26T10:48:21.648Z,2.20
2022-10-26T10:51:04.607Z,2.70
2022-10-26T10:53:35.762Z,2.80
2022-10-26T10:56:21.683Z,1.23
2022-10-26T10:59:30.328Z,1.98
2022-10-26T11:02:41.146Z,11.20
2022-10-26T11:05:27.642Z,7.90
2022-10-26T11:08:12.319Z,1.25
2022-10-26T11:10:49.145Z,0.82
2022-10-26T11:13:29.794Z,3.03
2022-10-26T11:16:03.851Z,5.32
2022-10-26T11:18:49.923Z,16.10
2022-10-26T11:21:29.211Z,9.10
2022-10-26T11:24:19.808Z,8.93
2022-10-26T11:27:03.869Z,7.05
2022-10-26T11:29:54.769Z,0.68
2022-10-26T11:32:48.556Z,4.63
2022-10-26T11:35:19.798Z,10.75
2022-10-26T11:38:11.651Z,4.55
2022-10-26T11:40:52.688Z,3.22
2022-10-26T11:43:45.453Z,6.45
2022-10-26T11:46:20.585Z,47.22
2022-10-26T11:49:16.504Z,8.95
2022-10-26T11:52:34.175Z,6.38
2022-10-26T11:55:03.978Z,1.70
2022-10-26T11:57:36.755Z,16.00
2022-10-26T12:00:17.865Z,2.60
2022-10-26T12:02:57.351Z,2.83
2022-10-26T12:05:39.604Z,4.13
2022-10-26T12:08:19.967Z,2.92
2022-10-26T12:11:26.881Z,0.80
2022-10-26T12:14:01.732Z,6.35
2022-10-26T12:16:56.524Z,1.20
2022-10-26T12:19:42.037Z,4.57
2022-10-26T12:22:16.812Z,5.57
2022-10-26T12:24:46.513Z,1.27
2022-10-26T12:27:39.791Z,2.72
2022-10-26T12:30:19.113Z,3.25
2022-10-26T12:32:47.630Z,1.30
2022-10-26T12:35:40.774Z,2.30
2022-10-26T12:38:53.832Z,6.35
2022-10-26T12:41:24.208Z,5.05
2022-10-26T12:43:55.884Z,4.20
2022-10-26T12:46:25.931Z,3.60
2022-10-26T12:48:53.327Z,8.93
2022-10-26T12:51:21.010Z,4.22
2022-10-26T12:54:03.513Z,4.85
2022-10-26T12:57:09.639Z,53.83
2022-10-26T12:59:59.912Z,9.10
2022-10-26T13:02:54.429Z,12.50
2022-10-26T13:06:09.217Z,12.88
2022-10-26T13:08:49.235Z,3.35
2022-10-26T13:11:34.620Z,13.40
2022-10-26T13:14:08.383Z,3.33
2022-10-26T13:16:35.555Z,2.28
2022-10-26T13:19:02.882Z,5.38
2022-10-26T13:21:30.588Z,4.10
2022-10-26T13:24:01.109Z,2.60
2022-10-26T13:26:30.683Z,2.75
2022-10-26T13:29:03.405Z,4.82
2022-10-26T13:31:33.739Z,5.25
2022-10-26T13:34:12.301Z,10.13
2022-10-26T13:37:11.466Z,6.03
2022-10-26T13:39:43.042Z,2.85
2022-10-26T13:42:21.276Z,1.70
2022-10-26T13:45:02.914Z,2.30
2022-10-26T13:47:52.149Z,9.65
2022-10-26T13:50:32.259Z,9.52
2022-10-26T13:53:13.883Z,9.10
2022-10-26T13:55:55.091Z,8.98
2022-10-26T13:58:33.292Z,3.22
2022-10-26T14:01:09.777Z,2.80
2022-10-26T14:03:38.119Z,5.00
2022-10-26T14:06:23.262Z,8.02
2022-10-26T14:08:53.309Z,3.03
2022-10-26T14:11:30.968Z,11.30
2022-10-26T14:13:58.421Z,4.55
2022-10-26T14:16:30.872Z,2.55
2022-10-26T14:18:58.304Z,6.40
2022-10-26T14:21:25.855Z,10.38
2022-10-26T14:23:58.052Z,5.10
2022-10-26T14:26:40.483Z,3.45
2022-10-26T14:29:20.891Z,9.88
2022-10-26T14:31:49.417Z,4.13
2022-10-26T14:34:18.569Z,8.65
2022-10-26T14:36:50.151Z,6.32
2022-10-26T14:39:45.679Z,2.80
2022-10-26T14:42:30.109Z,3.90
2022-10-26T14:44:58.032Z,2.83
2022-10-26T14:47:35.037Z,10.27
2022-10-26T14:50:03.364Z,4.82
2022-10-26T14:52:35.175Z,22.10
2022-10-26T14:55:15.849Z,7.68
2022-10-26T14:57:47.269Z,6.50
2022-10-26T15:00:20.170Z,4.43
2022-10-26T15:02:55.655Z,3.40
2022-10-26T15:05:34.630Z,6.38
2022-10-26T15:08:03.195Z,8.32
2022-10-26T15:10:36.577Z,16.83
2022-10-26T15:13:28.613Z,5.20
2022-10-26T15:16:09.013Z,3.38
2022-10-26T15:18:37.981Z,6.05
2022-10-26T15:23:51.760Z,10.77
2022-10-26T15:26:19.319Z,6.28
2022-10-26T15:28:49.068Z,6.57
2022-10-26T15:31:16.049Z,6.38
2022-10-26T15:33:52.080Z,8.07
2022-10-26T15:36:28.878Z,11.60
2022-10-26T15:38:58.104Z,9.43
2022-10-26T15:41:26.449Z,11.43
2022-10-26T15:44:00.768Z,6.40
2022-10-26T15:46:34.576Z,2.05
2022-10-26T15:49:05.174Z,9.80
2022-10-26T15:51:33.351Z,5.30
2022-10-26T15:54:04.555Z,4.75
2022-10-26T15:56:32.109Z,5.18
2022-10-26T15:58:59.640Z,5.63
2022-10-26T16:01:28.986Z,6.72
2022-10-26T16:03:56.364Z,5.38
2022-10-26T16:06:33.646Z,5.88
2022-10-26T16:09:03.963Z,9.70
2022-10-26T16:11:32.269Z,10.35
2022-10-26T16:14:02.813Z,11.43
2022-10-26T16:16:31.307Z,10.18
2022-10-26T16:19:18.314Z,10.90
2022-10-26T16:21:45.564Z,10.13
2022-10-26T16:24:12.760Z,7.68
2022-10-26T16:26:39.874Z,12.65
2022-10-26T16:29:06.952Z,8.82
2022-10-26T16:31:34.224Z,8.40
2022-10-26T16:34:04.018Z,16.88
2022-10-26T16:36:34.737Z,13.13
2022-10-26T16:41:34.429Z,10.80
2022-10-26T16:44:01.693Z,8.32
2022-10-26T16:46:28.865Z,7.95
2022-10-26T16:48:56.031Z,13.77
2022-10-26T16:51:27.114Z,13.10
2022-10-26T16:53:56.343Z,6.38
2022-10-26T16:56:29.616Z,11.80
2022-10-26T16:58:57.138Z,6.90
2022-10-26T17:01:24.918Z,12.57
2022-10-26T17:03:52.905Z,6.65
2022-10-26T17:06:20.449Z,7.57
2022-10-26T17:08:47.915Z,13.48
2022-10-26T17:11:20.627Z,11.80
2022-10-26T17:13:52.114Z,14.40
2022-10-26T17:16:22.498Z,18.45
2022-10-26T17:18:50.909Z,21.38
2022-10-26T17:21:29.658Z,19.48
2022-10-26T17:23:57.443Z,20.73
2022-10-26T17:26:24.961Z,17.65
2022-10-26T17:28:54.394Z,18.90
2022-10-26T17:31:24.049Z,14.85
2022-10-26T17:33:51.695Z,11.70
2022-10-26T17:36:21.848Z,12.32
2022-10-26T17:38:52.283Z,11.63
2022-10-26T17:41:21.664Z,10.65
2022-10-26T17:43:49.679Z,30.85
2022-10-26T17:46:23.231Z,11.60
2022-10-26T17:48:59.400Z,12.23
2022-10-26T17:51:29.096Z,14.48
2022-10-26T17:53:58.400Z,14.32
2022-10-26T17:56:32.521Z,15.85
2022-10-26T17:59:08.822Z,21.30
2022-10-26T18:01:36.060Z,20.65
2022-10-26T18:04:03.522Z,13.40
2022-10-26T18:06:30.850Z,6.07
2022-10-26T18:08:58.294Z,6.43
2022-10-26T18:11:27.449Z,8.48
2022-10-26T18:13:56.255Z,8.55
2022-10-26T18:16:26.039Z,6.63
2022-10-26T18:18:59.935Z,9.98
2022-10-26T18:21:29.342Z,8.40
2022-10-26T18:23:56.734Z,12.82
2022-10-26T18:26:28.197Z,8.85
2022-10-26T18:28:57.051Z,6.97
2022-10-26T18:31:25.881Z,9.05
2022-10-26T18:34:03.538Z,8.20
2022-10-26T18:36:32.024Z,20.95
2022-10-26T18:38:59.458Z,17.05
2022-10-26T18:41:27.288Z,15.95
2022-10-26T18:43:58.359Z,15.18
2022-10-26T18:46:29.481Z,13.52
2022-10-26T18:48:59.170Z,14.98
2022-10-26T18:51:32.978Z,25.00
2022-10-26T18:54:00.866Z,29.27
2022-10-26T18:56:28.247Z,15.60
2022-10-26T18:58:58.458Z,33.33
2022-10-26T19:01:33.875Z,17.30
2022-10-26T19:04:05.906Z,13.07
2022-10-26T19:06:40.082Z,6.82
2022-10-26T19:09:09.608Z,22.15
2022-10-26T19:11:37.796Z,32.83
2022-10-26T19:14:06.880Z,15.63
2022-10-26T19:16:49.861Z,17.67
2022-10-26T19:19:19.095Z,10.38
2022-10-26T19:21:49.212Z,34.47
2022-10-26T19:24:20.272Z,21.02
2022-10-26T19:26:49.894Z,20.73
2022-10-26T19:29:18.373Z,32.25
2022-10-26T19:31:47.575Z,29.70
2022-10-26T19:36:45.713Z,19.92
2022-10-26T19:39:17.307Z,15.77
2022-10-26T19:41:45.755Z,11.90
2022-10-26T19:44:13.914Z,7.97
2022-10-26T19:46:41.275Z,11.93
2022-10-26T19:49:09.091Z,8.88
2022-10-26T19:51:36.595Z,18.33
2022-10-26T19:54:06.527Z,21.10
2022-10-26T19:56:36.230Z,22.77
2022-10-26T19:59:04.919Z,19.70
2022-10-26T20:01:32.615Z,27.42
2022-10-26T20:04:01.872Z,24.83
2022-10-26T20:08:57.438Z,27.67
2022-10-26T20:11:24.874Z,18.92
2022-10-26T20:13:54.213Z,15.48
2022-10-26T20:18:49.212Z,12.90
2022-10-26T20:21:17.208Z,24.75
2022-10-26T20:23:45.104Z,23.27
2022-10-26T20:26:18.932Z,19.17
2022-10-26T20:28:50.678Z,18.50
2022-10-26T20:31:18.793Z,25.88
2022-10-26T20:33:51.301Z,37.88
2022-10-26T20:36:21.272Z,36.78
2022-10-26T20:38:49.396Z,26.48
2022-10-26T20:41:17.164Z,16.05
2022-10-26T20:43:44.886Z,26.63
2022-10-26T20:46:25.138Z,18.05
2022-10-26T20:48:54.006Z,15.32
2022-10-26T20:52:18.956Z,29.50
2022-10-26T20:55:04.983Z,17.02
2022-10-26T20:57:34.001Z,20.08
2022-10-26T21:00:10.404Z,13.48
2022-10-26T21:02:37.600Z,21.98
2022-10-26T21:05:05.578Z,18.20
2022-10-26T21:07:32.813Z,18.25
2022-10-26T21:10:00.001Z,17.13
2022-10-26T21:12:27.247Z,13.30
2022-10-26T21:14:54.464Z,13.45
2022-10-26T21:17:21.862Z,26.27
2022-10-26T21:19:49.131Z,17.05
2022-10-26T21:22:16.581Z,15.23
2022-10-26T21:24:43.752Z,16.38
2022-10-26T21:27:10.932Z,17.67
2022-10-26T21:29:38.146Z,22.88
2022-10-26T21:32:05.445Z,14.23
2022-10-26T21:34:32.752Z,17.40
2022-10-26T21:37:00.177Z,22.13
2022-10-26T21:39:27.325Z,18.27
2022-10-26T21:41:54.426Z,34.83
2022-10-26T21:44:38.735Z,29.65
2022-10-26T21:47:07.645Z,20.88
2022-10-26T21:49:35.267Z,25.23
2022-10-26T21:52:02.950Z,30.88
2022-10-26T21:54:30.099Z,27.50
2022-10-26T21:56:57.415Z,21.70
2022-10-26T21:59:24.628Z,18.75
2022-10-26T22:01:51.978Z,31.08
2022-10-26T22:04:19.234Z,21.35
2022-10-26T22:06:46.477Z,18.52
2022-10-26T22:09:13.712Z,20.20
2022-10-26T22:11:41.019Z,21.08
2022-10-26T22:14:08.127Z,17.42
2022-10-26T22:16:35.329Z,18.25
2022-10-26T22:19:06.936Z,14.73
2022-10-26T22:21:37.909Z,21.25
2022-10-26T22:24:06.461Z,19.60
2022-10-26T22:26:36.199Z,16.52
2022-10-26T22:29:03.902Z,13.98
2022-10-26T22:31:34.809Z,13.52
2022-10-26T22:34:07.614Z,17.52
2022-10-26T22:36:35.821Z,10.65
2022-10-26T22:39:03.360Z,17.23
2022-10-26T22:41:31.075Z,15.05
2022-10-26T22:43:58.259Z,16.50
2022-10-26T22:46:27.583Z,15.18
2022-10-26T22:51:34.385Z,19.42
2022-10-26T22:54:03.675Z,12.63
2022-10-26T22:59:00.308Z,32.92
2022-10-26T23:01:31.803Z,12.10
2022-10-26T23:03:59.834Z,16.73
2022-10-26T23:06:30.672Z,18.48
2022-10-26T23:08:58.339Z,26.67
2022-10-26T23:11:28.023Z,22.30
2022-10-26T23:14:00.663Z,24.40
2022-10-26T23:16:29.340Z,24.00
2022-10-26T23:18:57.455Z,20.58
2022-10-26T23:21:28.586Z,26.13
2022-10-26T23:23:56.317Z,22.75
2022-10-26T23:26:23.828Z,26.05
2022-10-26T23:28:51.045Z,16.23
2022-10-26T23:31:26.920Z,12.88
2022-10-26T23:33:55.962Z,16.17
2022-10-26T23:36:23.968Z,14.48
2022-10-26T23:38:51.138Z,15.45
2022-10-26T23:41:18.431Z,13.48
2022-10-26T23:43:45.584Z,10.13
2022-10-26T23:46:12.749Z,7.93
2022-10-26T23:48:39.962Z,13.10
2022-10-26T23:51:07.120Z,14.50
2022-10-26T23:53:34.289Z,10.95
2022-10-26T23:56:01.553Z,13.40
2022-10-26T23:58:28.750Z,10.02
